sensor_id;sensor_type;location;lat;lon;timestamp;temperature;humidity
33994;DHT22;20673;48.980;8.138;2023-04-10T00:01:39;4.20;99.90
33994;DHT22;20673;48.980;8.138;2023-04-10T00:04:05;4.20;99.90
33994;DHT22;20673;48.980;8.138;2023-04-10T00:06:31;4.10;99.90
33994;DHT22;20673;48.980;8.138;2023-04-10T00:08:57;4.10;99.90
33994;DHT22;20673;48.980;8.138;2023-04-10T00:11:23;4.10;99.90
33994;DHT22;20673;48.980;8.138;2023-04-10T00:13:49;4.00;99.90
33994;DHT22;20673;48.980;8.138;2023-04-10T00:16:15;4.00;99.90
33994;DHT22;20673;48.980;8.138;2023-04-10T00:18:41;4.00;99.90
33994;DHT22;20673;48.980;8.138;2023-04-10T00:21:06;4.00;99.90
33994;DHT22;20673;48.980;8.138;2023-04-10T00:23:32;3.90;99.90
33994;DHT22;20673;48.980;8.138;2023-04-10T00:25:59;3.90;99.90
33994;DHT22;20673;48.980;8.138;2023-04-10T00:28:25;3.90;99.90
33994;DHT22;20673;48.980;8.138;2023-04-10T00:30:51;3.90;99.90
33994;DHT22;20673;48.980;8.138;2023-04-10T00:33:17;3.80;99.90
33994;DHT22;20673;48.980;8.138;2023-04-10T00:35:42;3.80;99.90
33994;DHT22;20673;48.980;8.138;2023-04-10T00:38:08;3.70;99.90
33994;DHT22;20673;48.980;8.138;2023-04-10T00:40:34;3.80;99.90
33994;DHT22;20673;48.980;8.138;2023-04-10T00:43:00;3.80;99.90
33994;DHT22;20673;48.980;8.138;2023-04-10T00:45:25;3.80;99.90
33994;DHT22;20673;48.980;8.138;2023-04-10T00:47:51;3.80;99.90
33994;DHT22;20673;48.980;8.138;2023-04-10T00:50:18;3.70;99.90
33994;DHT22;20673;48.980;8.138;2023-04-10T00:52:44;3.60;99.90
33994;DHT22;20673;48.980;8.138;2023-04-10T00:55:09;3.50;99.90
33994;DHT22;20673;48.980;8.138;2023-04-10T00:57:36;3.50;99.90
33994;DHT22;20673;48.980;8.138;2023-04-10T01:00:02;3.40;99.90
33994;DHT22;20673;48.980;8.138;2023-04-10T01:02:29;3.30;99.90
33994;DHT22;20673;48.980;8.138;2023-04-10T01:04:54;3.40;99.90
33994;DHT22;20673;48.980;8.138;2023-04-10T01:07:26;3.40;99.90
33994;DHT22;20673;48.980;8.138;2023-04-10T01:20:00;3.20;99.90
33994;DHT22;20673;48.980;8.138;2023-04-10T01:22:27;3.20;99.90
33994;DHT22;20673;48.980;8.138;2023-04-10T01:24:59;3.00;99.90
33994;DHT22;20673;48.980;8.138;2023-04-10T01:28:10;3.00;99.90
33994;DHT22;20673;48.980;8.138;2023-04-10T01:29:49;2.90;99.90
33994;DHT22;20673;48.980;8.138;2023-04-10T01:32:16;2.90;99.90
33994;DHT22;20673;48.980;8.138;2023-04-10T01:34:44;2.80;99.90
33994;DHT22;20673;48.980;8.138;2023-04-10T01:37:15;2.90;99.90
33994;DHT22;20673;48.980;8.138;2023-04-10T01:39:38;2.90;99.90
33994;DHT22;20673;48.980;8.138;2023-04-10T01:42:06;2.90;99.90
33994;DHT22;20673;48.980;8.138;2023-04-10T01:44:33;2.80;99.90
33994;DHT22;20673;48.980;8.138;2023-04-10T01:47:00;2.70;99.90
33994;DHT22;20673;48.980;8.138;2023-04-10T01:49:27;2.50;99.90
33994;DHT22;20673;48.980;8.138;2023-04-10T01:51:52;2.50;99.90
33994;DHT22;20673;48.980;8.138;2023-04-10T01:54:21;2.50;99.90
33994;DHT22;20673;48.980;8.138;2023-04-10T01:56:47;2.50;99.90
33994;DHT22;20673;48.980;8.138;2023-04-10T01:59:13;2.50;99.90
33994;DHT22;20673;48.980;8.138;2023-04-10T02:01:38;2.50;99.90
33994;DHT22;20673;48.980;8.138;2023-04-10T02:04:04;2.50;99.90
33994;DHT22;20673;48.980;8.138;2023-04-10T02:09:07;2.40;99.90
33994;DHT22;20673;48.980;8.138;2023-04-10T02:14:10;2.40;99.90
33994;DHT22;20673;48.980;8.138;2023-04-10T02:16:38;2.40;99.90
33994;DHT22;20673;48.980;8.138;2023-04-10T02:19:05;2.40;99.90
33994;DHT22;20673;48.980;8.138;2023-04-10T02:21:31;2.40;99.90
33994;DHT22;20673;48.980;8.138;2023-04-10T02:23:58;2.40;99.90
33994;DHT22;20673;48.980;8.138;2023-04-10T02:26:23;2.40;99.90
33994;DHT22;20673;48.980;8.138;2023-04-10T02:28:49;2.30;99.90
33994;DHT22;20673;48.980;8.138;2023-04-10T02:31:15;2.20;99.90
33994;DHT22;20673;48.980;8.138;2023-04-10T02:33:41;2.20;99.90
33994;DHT22;20673;48.980;8.138;2023-04-10T02:36:06;2.20;99.90
33994;DHT22;20673;48.980;8.138;2023-04-10T02:38:32;2.20;99.90
33994;DHT22;20673;48.980;8.138;2023-04-10T02:40:58;2.30;99.90
33994;DHT22;20673;48.980;8.138;2023-04-10T02:43:24;2.30;99.90
33994;DHT22;20673;48.980;8.138;2023-04-10T02:45:49;2.30;99.90
33994;DHT22;20673;48.980;8.138;2023-04-10T02:48:15;2.30;99.90
33994;DHT22;20673;48.980;8.138;2023-04-10T02:50:41;2.30;99.90
33994;DHT22;20673;48.980;8.138;2023-04-10T02:53:08;2.30;99.90
33994;DHT22;20673;48.980;8.138;2023-04-10T02:55:35;2.10;99.90
33994;DHT22;20673;48.980;8.138;2023-04-10T02:58:00;2.10;99.90
33994;DHT22;20673;48.980;8.138;2023-04-10T03:00:26;2.10;99.90
33994;DHT22;20673;48.980;8.138;2023-04-10T03:02:52;2.20;99.90
33994;DHT22;20673;48.980;8.138;2023-04-10T03:05:17;2.20;99.90
33994;DHT22;20673;48.980;8.138;2023-04-10T03:07:43;2.20;99.90
33994;DHT22;20673;48.980;8.138;2023-04-10T03:10:09;2.10;99.90
33994;DHT22;20673;48.980;8.138;2023-04-10T03:12:35;2.10;99.90
33994;DHT22;20673;48.980;8.138;2023-04-10T03:15:00;2.10;99.90
33994;DHT22;20673;48.980;8.138;2023-04-10T03:17:26;2.20;99.90
33994;DHT22;20673;48.980;8.138;2023-04-10T03:19:52;2.10;99.90
33994;DHT22;20673;48.980;8.138;2023-04-10T03:22:17;2.10;99.90
33994;DHT22;20673;48.980;8.138;2023-04-10T03:24:43;2.00;99.90
33994;DHT22;20673;48.980;8.138;2023-04-10T03:27:09;2.00;99.90
33994;DHT22;20673;48.980;8.138;2023-04-10T03:29:34;2.00;99.90
33994;DHT22;20673;48.980;8.138;2023-04-10T03:32:00;2.00;99.90
33994;DHT22;20673;48.980;8.138;2023-04-10T03:34:25;2.10;99.90
33994;DHT22;20673;48.980;8.138;2023-04-10T03:36:51;2.10;99.90
33994;DHT22;20673;48.980;8.138;2023-04-10T03:39:17;2.10;99.90
33994;DHT22;20673;48.980;8.138;2023-04-10T03:41:43;2.00;99.90
33994;DHT22;20673;48.980;8.138;2023-04-10T03:44:08;2.00;99.90
33994;DHT22;20673;48.980;8.138;2023-04-10T03:46:34;2.00;99.90
33994;DHT22;20673;48.980;8.138;2023-04-10T03:48:59;2.00;99.90
33994;DHT22;20673;48.980;8.138;2023-04-10T03:51:25;2.00;99.90
33994;DHT22;20673;48.980;8.138;2023-04-10T03:53:51;2.00;99.90
33994;DHT22;20673;48.980;8.138;2023-04-10T03:56:17;2.00;99.90
33994;DHT22;20673;48.980;8.138;2023-04-10T03:58:43;1.90;99.90
33994;DHT22;20673;48.980;8.138;2023-04-10T04:01:08;1.80;99.90
33994;DHT22;20673;48.980;8.138;2023-04-10T04:03:34;1.80;99.90
33994;DHT22;20673;48.980;8.138;2023-04-10T04:06:00;1.80;99.90
33994;DHT22;20673;48.980;8.138;2023-04-10T04:08:25;1.70;99.90
33994;DHT22;20673;48.980;8.138;2023-04-10T04:10:51;1.80;99.90
33994;DHT22;20673;48.980;8.138;2023-04-10T04:13:17;1.70;99.90
33994;DHT22;20673;48.980;8.138;2023-04-10T04:15:42;1.70;99.90
33994;DHT22;20673;48.980;8.138;2023-04-10T04:18:08;1.60;99.90
33994;DHT22;20673;48.980;8.138;2023-04-10T04:20:34;1.50;99.90
33994;DHT22;20673;48.980;8.138;2023-04-10T04:23:00;1.50;99.90
33994;DHT22;20673;48.980;8.138;2023-04-10T04:25:26;1.50;99.90
33994;DHT22;20673;48.980;8.138;2023-04-10T04:27:51;1.60;99.90
33994;DHT22;20673;48.980;8.138;2023-04-10T04:30:17;1.60;99.90
33994;DHT22;20673;48.980;8.138;2023-04-10T04:32:43;1.60;99.90
33994;DHT22;20673;48.980;8.138;2023-04-10T04:35:09;1.60;99.90
33994;DHT22;20673;48.980;8.138;2023-04-10T04:37:34;1.60;99.90
33994;DHT22;20673;48.980;8.138;2023-04-10T04:40:00;1.70;99.90
33994;DHT22;20673;48.980;8.138;2023-04-10T04:42:26;1.70;99.90
33994;DHT22;20673;48.980;8.138;2023-04-10T04:44:52;1.70;99.90
33994;DHT22;20673;48.980;8.138;2023-04-10T04:47:17;1.70;99.90
33994;DHT22;20673;48.980;8.138;2023-04-10T04:49:43;1.60;99.90
33994;DHT22;20673;48.980;8.138;2023-04-10T04:52:09;1.60;99.90
33994;DHT22;20673;48.980;8.138;2023-04-10T04:54:35;1.60;99.90
33994;DHT22;20673;48.980;8.138;2023-04-10T04:57:00;1.50;99.90
33994;DHT22;20673;48.980;8.138;2023-04-10T04:59:26;1.50;99.90
33994;DHT22;20673;48.980;8.138;2023-04-10T05:01:52;1.50;99.90
33994;DHT22;20673;48.980;8.138;2023-04-10T05:04:18;1.50;99.90
33994;DHT22;20673;48.980;8.138;2023-04-10T05:06:44;1.50;99.90
33994;DHT22;20673;48.980;8.138;2023-04-10T05:09:10;1.60;99.90
33994;DHT22;20673;48.980;8.138;2023-04-10T05:11:36;1.60;99.90
33994;DHT22;20673;48.980;8.138;2023-04-10T05:14:02;1.70;99.90
33994;DHT22;20673;48.980;8.138;2023-04-10T05:16:27;1.70;99.90
33994;DHT22;20673;48.980;8.138;2023-04-10T05:18:53;1.70;99.90
33994;DHT22;20673;48.980;8.138;2023-04-10T05:21:19;1.70;99.90
33994;DHT22;20673;48.980;8.138;2023-04-10T05:23:45;1.70;99.90
33994;DHT22;20673;48.980;8.138;2023-04-10T05:26:11;1.80;99.90
33994;DHT22;20673;48.980;8.138;2023-04-10T05:28:36;1.90;99.90
33994;DHT22;20673;48.980;8.138;2023-04-10T05:31:02;1.90;99.90
33994;DHT22;20673;48.980;8.138;2023-04-10T05:33:28;2.00;99.90
33994;DHT22;20673;48.980;8.138;2023-04-10T05:35:53;2.10;99.90
33994;DHT22;20673;48.980;8.138;2023-04-10T05:38:20;2.20;99.90
33994;DHT22;20673;48.980;8.138;2023-04-10T05:40:46;2.30;99.90
33994;DHT22;20673;48.980;8.138;2023-04-10T05:43:12;2.40;99.90
33994;DHT22;20673;48.980;8.138;2023-04-10T05:45:38;2.50;99.90
33994;DHT22;20673;48.980;8.138;2023-04-10T05:48:05;2.50;99.90
33994;DHT22;20673;48.980;8.138;2023-04-10T05:50:30;2.70;99.90
33994;DHT22;20673;48.980;8.138;2023-04-10T05:52:56;2.70;99.90
33994;DHT22;20673;48.980;8.138;2023-04-10T05:55:22;2.80;99.90
33994;DHT22;20673;48.980;8.138;2023-04-10T05:57:47;2.80;99.90
33994;DHT22;20673;48.980;8.138;2023-04-10T06:00:15;2.80;99.90
33994;DHT22;20673;48.980;8.138;2023-04-10T06:02:42;2.90;99.90
33994;DHT22;20673;48.980;8.138;2023-04-10T06:05:08;2.90;99.90
33994;DHT22;20673;48.980;8.138;2023-04-10T06:07:33;3.00;99.90
33994;DHT22;20673;48.980;8.138;2023-04-10T06:09:59;3.10;99.90
33994;DHT22;20673;48.980;8.138;2023-04-10T06:12:25;3.20;99.90
33994;DHT22;20673;48.980;8.138;2023-04-10T06:14:50;3.30;99.90
33994;DHT22;20673;48.980;8.138;2023-04-10T06:17:16;3.50;99.90
33994;DHT22;20673;48.980;8.138;2023-04-10T06:19:42;3.60;99.90
33994;DHT22;20673;48.980;8.138;2023-04-10T06:22:07;3.70;99.90
33994;DHT22;20673;48.980;8.138;2023-04-10T06:24:33;3.80;99.90
33994;DHT22;20673;48.980;8.138;2023-04-10T06:26:59;4.00;99.90
33994;DHT22;20673;48.980;8.138;2023-04-10T06:29:25;4.20;99.90
33994;DHT22;20673;48.980;8.138;2023-04-10T06:31:50;4.40;99.90
33994;DHT22;20673;48.980;8.138;2023-04-10T06:34:16;4.60;99.90
33994;DHT22;20673;48.980;8.138;2023-04-10T06:36:42;4.80;99.90
33994;DHT22;20673;48.980;8.138;2023-04-10T06:39:07;5.00;99.90
33994;DHT22;20673;48.980;8.138;2023-04-10T06:41:33;5.20;99.90
33994;DHT22;20673;48.980;8.138;2023-04-10T06:43:59;5.50;99.90
33994;DHT22;20673;48.980;8.138;2023-04-10T06:46:26;5.70;99.90
33994;DHT22;20673;48.980;8.138;2023-04-10T06:48:51;5.90;99.90
33994;DHT22;20673;48.980;8.138;2023-04-10T06:51:17;6.00;99.90
33994;DHT22;20673;48.980;8.138;2023-04-10T06:53:43;6.30;99.90
33994;DHT22;20673;48.980;8.138;2023-04-10T06:56:08;6.50;99.90
33994;DHT22;20673;48.980;8.138;2023-04-10T06:58:35;6.70;99.90
33994;DHT22;20673;48.980;8.138;2023-04-10T07:01:00;6.90;99.90
33994;DHT22;20673;48.980;8.138;2023-04-10T07:03:29;7.10;99.90
33994;DHT22;20673;48.980;8.138;2023-04-10T07:05:56;7.30;99.90
33994;DHT22;20673;48.980;8.138;2023-04-10T07:08:21;7.60;99.90
33994;DHT22;20673;48.980;8.138;2023-04-10T07:10:47;7.80;99.90
33994;DHT22;20673;48.980;8.138;2023-04-10T07:13:13;8.00;99.90
33994;DHT22;20673;48.980;8.138;2023-04-10T07:15:38;8.20;99.90
33994;DHT22;20673;48.980;8.138;2023-04-10T07:18:04;8.50;99.90
33994;DHT22;20673;48.980;8.138;2023-04-10T07:20:30;8.70;99.90
33994;DHT22;20673;48.980;8.138;2023-04-10T07:22:56;8.90;99.90
33994;DHT22;20673;48.980;8.138;2023-04-10T07:25:22;9.00;99.90
33994;DHT22;20673;48.980;8.138;2023-04-10T07:27:47;9.20;99.90
33994;DHT22;20673;48.980;8.138;2023-04-10T07:30:13;9.40;99.90
33994;DHT22;20673;48.980;8.138;2023-04-10T07:32:39;9.60;99.90
33994;DHT22;20673;48.980;8.138;2023-04-10T07:35:06;9.80;99.90
33994;DHT22;20673;48.980;8.138;2023-04-10T07:37:32;10.00;99.90
33994;DHT22;20673;48.980;8.138;2023-04-10T07:39:58;10.10;99.90
33994;DHT22;20673;48.980;8.138;2023-04-10T07:42:24;10.30;99.90
33994;DHT22;20673;48.980;8.138;2023-04-10T07:44:51;10.40;99.90
33994;DHT22;20673;48.980;8.138;2023-04-10T07:47:16;10.60;99.90
33994;DHT22;20673;48.980;8.138;2023-04-10T07:49:42;10.80;99.90
33994;DHT22;20673;48.980;8.138;2023-04-10T07:52:08;10.90;99.90
33994;DHT22;20673;48.980;8.138;2023-04-10T07:54:33;11.10;99.90
33994;DHT22;20673;48.980;8.138;2023-04-10T07:56:59;11.30;99.90
33994;DHT22;20673;48.980;8.138;2023-04-10T07:59:25;11.40;99.90
33994;DHT22;20673;48.980;8.138;2023-04-10T08:01:51;11.60;99.90
33994;DHT22;20673;48.980;8.138;2023-04-10T08:04:17;11.80;99.90
33994;DHT22;20673;48.980;8.138;2023-04-10T08:06:43;12.00;99.90
33994;DHT22;20673;48.980;8.138;2023-04-10T08:09:10;12.20;99.90
33994;DHT22;20673;48.980;8.138;2023-04-10T08:11:35;12.40;99.90
33994;DHT22;20673;48.980;8.138;2023-04-10T08:14:01;12.70;99.90
33994;DHT22;20673;48.980;8.138;2023-04-10T08:16:28;12.90;99.90
33994;DHT22;20673;48.980;8.138;2023-04-10T08:18:55;13.00;99.90
33994;DHT22;20673;48.980;8.138;2023-04-10T08:21:22;13.40;99.90
33994;DHT22;20673;48.980;8.138;2023-04-10T08:23:54;13.60;99.90
33994;DHT22;20673;48.980;8.138;2023-04-10T08:26:21;13.70;99.90
33994;DHT22;20673;48.980;8.138;2023-04-10T08:28:48;13.70;99.90
33994;DHT22;20673;48.980;8.138;2023-04-10T08:31:20;13.80;99.90
33994;DHT22;20673;48.980;8.138;2023-04-10T08:33:43;13.80;99.90
33994;DHT22;20673;48.980;8.138;2023-04-10T08:36:08;14.20;99.90
33994;DHT22;20673;48.980;8.138;2023-04-10T08:38:34;14.30;99.90
33994;DHT22;20673;48.980;8.138;2023-04-10T08:41:00;14.20;99.90
33994;DHT22;20673;48.980;8.138;2023-04-10T08:43:26;14.30;99.90
33994;DHT22;20673;48.980;8.138;2023-04-10T08:45:52;14.30;99.90
33994;DHT22;20673;48.980;8.138;2023-04-10T08:48:18;14.80;99.90
33994;DHT22;20673;48.980;8.138;2023-04-10T08:50:45;14.90;99.90
33994;DHT22;20673;48.980;8.138;2023-04-10T08:53:11;14.60;99.90
33994;DHT22;20673;48.980;8.138;2023-04-10T08:55:38;14.90;99.90
33994;DHT22;20673;48.980;8.138;2023-04-10T08:58:04;15.10;99.90
33994;DHT22;20673;48.980;8.138;2023-04-10T09:00:33;15.10;99.90
33994;DHT22;20673;48.980;8.138;2023-04-10T09:03:00;15.30;99.90
33994;DHT22;20673;48.980;8.138;2023-04-10T09:05:27;15.80;99.90
33994;DHT22;20673;48.980;8.138;2023-04-10T09:07:54;15.70;99.90
33994;DHT22;20673;48.980;8.138;2023-04-10T09:10:19;16.00;99.90
33994;DHT22;20673;48.980;8.138;2023-04-10T09:12:45;16.10;99.90
33994;DHT22;20673;48.980;8.138;2023-04-10T09:15:11;16.40;99.90
33994;DHT22;20673;48.980;8.138;2023-04-10T09:17:53;16.60;99.90
33994;DHT22;20673;48.980;8.138;2023-04-10T09:20:19;16.50;99.90
33994;DHT22;20673;48.980;8.138;2023-04-10T09:22:33;16.40;99.90
33994;DHT22;20673;48.980;8.138;2023-04-10T09:25:00;16.40;99.90
33994;DHT22;20673;48.980;8.138;2023-04-10T09:27:30;16.60;99.90
33994;DHT22;20673;48.980;8.138;2023-04-10T09:29:56;16.70;99.90
33994;DHT22;20673;48.980;8.138;2023-04-10T09:35:06;17.00;99.90
33994;DHT22;20673;48.980;8.138;2023-04-10T09:37:38;17.10;99.90
33994;DHT22;20673;48.980;8.138;2023-04-10T09:40:00;17.30;99.90
33994;DHT22;20673;48.980;8.138;2023-04-10T09:44:57;17.30;99.90
33994;DHT22;20673;48.980;8.138;2023-04-10T09:47:23;17.30;99.90
33994;DHT22;20673;48.980;8.138;2023-04-10T09:49:49;17.40;99.90
33994;DHT22;20673;48.980;8.138;2023-04-10T09:52:24;17.60;99.90
33994;DHT22;20673;48.980;8.138;2023-04-10T09:54:47;17.70;99.90
33994;DHT22;20673;48.980;8.138;2023-04-10T09:57:15;17.80;99.90
33994;DHT22;20673;48.980;8.138;2023-04-10T09:59:40;17.90;99.90
33994;DHT22;20673;48.980;8.138;2023-04-10T10:02:09;17.90;99.90
33994;DHT22;20673;48.980;8.138;2023-04-10T10:04:35;17.90;99.90
33994;DHT22;20673;48.980;8.138;2023-04-10T10:07:02;18.00;99.90
33994;DHT22;20673;48.980;8.138;2023-04-10T10:09:28;17.80;99.90
33994;DHT22;20673;48.980;8.138;2023-04-10T10:11:54;18.10;99.90
33994;DHT22;20673;48.980;8.138;2023-04-10T10:14:20;18.20;99.90
33994;DHT22;20673;48.980;8.138;2023-04-10T10:16:50;18.40;99.90
33994;DHT22;20673;48.980;8.138;2023-04-10T10:19:29;18.90;99.90
33994;DHT22;20673;48.980;8.138;2023-04-10T10:21:53;19.00;99.90
33994;DHT22;20673;48.980;8.138;2023-04-10T10:24:20;19.00;99.90
33994;DHT22;20673;48.980;8.138;2023-04-10T10:26:46;19.60;99.90
33994;DHT22;20673;48.980;8.138;2023-04-10T10:29:13;20.10;99.90
33994;DHT22;20673;48.980;8.138;2023-04-10T10:31:39;20.40;99.20
33994;DHT22;20673;48.980;8.138;2023-04-10T10:34:06;20.30;96.50
33994;DHT22;20673;48.980;8.138;2023-04-10T10:36:34;20.60;93.40
33994;DHT22;20673;48.980;8.138;2023-04-10T10:41:42;20.90;90.30
33994;DHT22;20673;48.980;8.138;2023-04-10T10:44:08;21.10;83.80
33994;DHT22;20673;48.980;8.138;2023-04-10T10:46:50;21.20;87.00
33994;DHT22;20673;48.980;8.138;2023-04-10T10:49:17;21.00;81.60
33994;DHT22;20673;48.980;8.138;2023-04-10T10:51:44;21.30;81.40
33994;DHT22;20673;48.980;8.138;2023-04-10T10:54:26;21.20;71.40
33994;DHT22;20673;48.980;8.138;2023-04-10T10:56:52;20.90;66.40
33994;DHT22;20673;48.980;8.138;2023-04-10T10:59:17;20.30;69.70
33994;DHT22;20673;48.980;8.138;2023-04-10T11:04:42;20.20;73.50
33994;DHT22;20673;48.980;8.138;2023-04-10T11:07:09;20.40;76.50
33994;DHT22;20673;48.980;8.138;2023-04-10T11:12:15;20.90;71.70
33994;DHT22;20673;48.980;8.138;2023-04-10T11:14:41;20.70;72.20
33994;DHT22;20673;48.980;8.138;2023-04-10T11:17:08;20.50;73.70
33994;DHT22;20673;48.980;8.138;2023-04-10T11:20:15;20.80;72.90
33994;DHT22;20673;48.980;8.138;2023-04-10T11:22:05;21.00;81.00
33994;DHT22;20673;48.980;8.138;2023-04-10T11:30:00;20.50;70.90
33994;DHT22;20673;48.980;8.138;2023-04-10T11:32:25;20.40;70.50
33994;DHT22;20673;48.980;8.138;2023-04-10T11:34:51;20.40;72.80
33994;DHT22;20673;48.980;8.138;2023-04-10T11:37:23;20.20;72.10
33994;DHT22;20673;48.980;8.138;2023-04-10T11:40:01;19.50;76.10
33994;DHT22;20673;48.980;8.138;2023-04-10T11:42:19;19.40;74.00
33994;DHT22;20673;48.980;8.138;2023-04-10T11:44:44;19.10;77.90
33994;DHT22;20673;48.980;8.138;2023-04-10T11:47:11;19.40;78.50
33994;DHT22;20673;48.980;8.138;2023-04-10T11:49:37;19.40;79.00
33994;DHT22;20673;48.980;8.138;2023-04-10T11:52:02;19.50;80.40
33994;DHT22;20673;48.980;8.138;2023-04-10T11:54:28;19.80;85.30
33994;DHT22;20673;48.980;8.138;2023-04-10T11:56:58;20.00;80.40
33994;DHT22;20673;48.980;8.138;2023-04-10T11:59:25;20.20;81.30
33994;DHT22;20673;48.980;8.138;2023-04-10T12:01:51;20.50;85.80
33994;DHT22;20673;48.980;8.138;2023-04-10T12:04:21;20.50;79.70
33994;DHT22;20673;48.980;8.138;2023-04-10T12:06:48;20.90;80.10
33994;DHT22;20673;48.980;8.138;2023-04-10T12:09:14;21.00;77.50
33994;DHT22;20673;48.980;8.138;2023-04-10T12:11:47;21.10;82.60
33994;DHT22;20673;48.980;8.138;2023-04-10T12:14:08;20.70;79.60
33994;DHT22;20673;48.980;8.138;2023-04-10T12:16:33;20.70;78.30
33994;DHT22;20673;48.980;8.138;2023-04-10T12:19:00;20.70;80.70
33994;DHT22;20673;48.980;8.138;2023-04-10T12:21:26;20.50;82.00
33994;DHT22;20673;48.980;8.138;2023-04-10T12:23:52;20.50;88.80
33994;DHT22;20673;48.980;8.138;2023-04-10T12:26:18;20.40;82.20
33994;DHT22;20673;48.980;8.138;2023-04-10T12:28:50;20.50;78.90
33994;DHT22;20673;48.980;8.138;2023-04-10T12:31:17;20.50;80.30
33994;DHT22;20673;48.980;8.138;2023-04-10T12:33:43;20.80;80.80
33994;DHT22;20673;48.980;8.138;2023-04-10T12:36:19;21.00;81.10
33994;DHT22;20673;48.980;8.138;2023-04-10T12:38:45;21.00;79.80
33994;DHT22;20673;48.980;8.138;2023-04-10T12:41:10;20.90;80.60
33994;DHT22;20673;48.980;8.138;2023-04-10T12:43:41;20.90;80.50
33994;DHT22;20673;48.980;8.138;2023-04-10T12:46:04;20.80;78.10
33994;DHT22;20673;48.980;8.138;2023-04-10T12:48:31;20.90;77.70
33994;DHT22;20673;48.980;8.138;2023-04-10T12:50:56;20.80;81.00
33994;DHT22;20673;48.980;8.138;2023-04-10T12:53:23;20.90;75.60
33994;DHT22;20673;48.980;8.138;2023-04-10T12:55:55;20.80;76.20
33994;DHT22;20673;48.980;8.138;2023-04-10T12:58:22;20.60;78.20
33994;DHT22;20673;48.980;8.138;2023-04-10T13:00:50;20.40;76.50
33994;DHT22;20673;48.980;8.138;2023-04-10T13:03:15;20.50;79.40
33994;DHT22;20673;48.980;8.138;2023-04-10T13:05:41;20.50;76.90
33994;DHT22;20673;48.980;8.138;2023-04-10T13:08:07;20.40;77.10
33994;DHT22;20673;48.980;8.138;2023-04-10T13:10:32;20.40;77.70
33994;DHT22;20673;48.980;8.138;2023-04-10T13:12:58;20.40;78.70
33994;DHT22;20673;48.980;8.138;2023-04-10T13:15:24;20.50;76.70
33994;DHT22;20673;48.980;8.138;2023-04-10T13:17:49;20.50;77.10
33994;DHT22;20673;48.980;8.138;2023-04-10T13:20:15;20.30;76.60
33994;DHT22;20673;48.980;8.138;2023-04-10T13:22:41;20.40;77.60
33994;DHT22;20673;48.980;8.138;2023-04-10T13:25:07;20.60;79.50
33994;DHT22;20673;48.980;8.138;2023-04-10T13:27:33;20.90;81.80
33994;DHT22;20673;48.980;8.138;2023-04-10T13:29:59;21.00;78.90
33994;DHT22;20673;48.980;8.138;2023-04-10T13:32:24;20.90;75.80
33994;DHT22;20673;48.980;8.138;2023-04-10T13:34:50;20.80;76.30
33994;DHT22;20673;48.980;8.138;2023-04-10T13:37:16;20.70;77.60
33994;DHT22;20673;48.980;8.138;2023-04-10T13:39:42;20.50;78.70
33994;DHT22;20673;48.980;8.138;2023-04-10T13:42:08;20.60;79.80
33994;DHT22;20673;48.980;8.138;2023-04-10T13:44:34;20.70;78.00
33994;DHT22;20673;48.980;8.138;2023-04-10T13:46:59;20.70;79.70
33994;DHT22;20673;48.980;8.138;2023-04-10T13:49:25;20.80;79.40
33994;DHT22;20673;48.980;8.138;2023-04-10T13:51:53;21.00;80.90
33994;DHT22;20673;48.980;8.138;2023-04-10T13:54:18;21.10;80.40
33994;DHT22;20673;48.980;8.138;2023-04-10T13:56:44;21.20;82.90
33994;DHT22;20673;48.980;8.138;2023-04-10T13:59:10;21.40;83.80
33994;DHT22;20673;48.980;8.138;2023-04-10T14:01:36;21.40;82.70
33994;DHT22;20673;48.980;8.138;2023-04-10T14:04:02;21.80;78.70
33994;DHT22;20673;48.980;8.138;2023-04-10T14:06:28;21.70;82.60
33994;DHT22;20673;48.980;8.138;2023-04-10T14:08:53;21.70;81.70
33994;DHT22;20673;48.980;8.138;2023-04-10T14:11:19;21.50;83.10
33994;DHT22;20673;48.980;8.138;2023-04-10T14:13:45;21.70;82.90
33994;DHT22;20673;48.980;8.138;2023-04-10T14:16:10;21.90;75.40
33994;DHT22;20673;48.980;8.138;2023-04-10T14:18:36;21.90;80.10
33994;DHT22;20673;48.980;8.138;2023-04-10T14:21:02;21.70;85.50
33994;DHT22;20673;48.980;8.138;2023-04-10T14:23:28;21.60;83.20
33994;DHT22;20673;48.980;8.138;2023-04-10T14:25:53;21.50;84.50
33994;DHT22;20673;48.980;8.138;2023-04-10T14:28:19;21.60;86.40
33994;DHT22;20673;48.980;8.138;2023-04-10T14:30:45;21.60;89.80
33994;DHT22;20673;48.980;8.138;2023-04-10T14:33:12;21.80;83.20
33994;DHT22;20673;48.980;8.138;2023-04-10T14:35:38;21.70;81.50
33994;DHT22;20673;48.980;8.138;2023-04-10T14:38:04;21.50;83.50
33994;DHT22;20673;48.980;8.138;2023-04-10T14:40:29;21.50;82.00
33994;DHT22;20673;48.980;8.138;2023-04-10T14:42:55;21.20;87.30
33994;DHT22;20673;48.980;8.138;2023-04-10T14:45:21;21.10;85.90
33994;DHT22;20673;48.980;8.138;2023-04-10T14:47:46;20.90;88.80
33994;DHT22;20673;48.980;8.138;2023-04-10T14:50:12;20.80;91.70
33994;DHT22;20673;48.980;8.138;2023-04-10T14:52:38;20.90;91.00
33994;DHT22;20673;48.980;8.138;2023-04-10T14:55:04;20.90;90.20
33994;DHT22;20673;48.980;8.138;2023-04-10T14:57:30;20.60;90.10
33994;DHT22;20673;48.980;8.138;2023-04-10T14:59:55;20.40;91.50
33994;DHT22;20673;48.980;8.138;2023-04-10T15:02:21;20.30;91.20
33994;DHT22;20673;48.980;8.138;2023-04-10T15:04:47;20.40;88.80
33994;DHT22;20673;48.980;8.138;2023-04-10T15:07:13;20.40;90.10
33994;DHT22;20673;48.980;8.138;2023-04-10T15:09:38;20.30;90.40
33994;DHT22;20673;48.980;8.138;2023-04-10T15:12:05;20.20;90.60
33994;DHT22;20673;48.980;8.138;2023-04-10T15:14:31;20.00;91.60
33994;DHT22;20673;48.980;8.138;2023-04-10T15:16:56;19.80;93.00
33994;DHT22;20673;48.980;8.138;2023-04-10T15:19:22;19.70;93.10
33994;DHT22;20673;48.980;8.138;2023-04-10T15:21:48;19.50;94.70
33994;DHT22;20673;48.980;8.138;2023-04-10T15:24:13;19.40;94.90
33994;DHT22;20673;48.980;8.138;2023-04-10T15:26:44;19.40;93.60
33994;DHT22;20673;48.980;8.138;2023-04-10T15:29:07;19.30;96.40
33994;DHT22;20673;48.980;8.138;2023-04-10T15:31:33;19.20;96.40
33994;DHT22;20673;48.980;8.138;2023-04-10T15:33:58;19.10;96.60
33994;DHT22;20673;48.980;8.138;2023-04-10T15:36:24;19.20;96.70
33994;DHT22;20673;48.980;8.138;2023-04-10T15:38:50;19.00;97.90
33994;DHT22;20673;48.980;8.138;2023-04-10T15:41:16;19.00;98.50
33994;DHT22;20673;48.980;8.138;2023-04-10T15:43:41;18.90;99.90
33994;DHT22;20673;48.980;8.138;2023-04-10T15:46:07;19.00;99.40
33994;DHT22;20673;48.980;8.138;2023-04-10T15:48:33;19.00;98.70
33994;DHT22;20673;48.980;8.138;2023-04-10T15:51:02;19.00;98.50
33994;DHT22;20673;48.980;8.138;2023-04-10T15:53:26;18.90;99.00
33994;DHT22;20673;48.980;8.138;2023-04-10T15:55:51;18.90;97.20
33994;DHT22;20673;48.980;8.138;2023-04-10T15:58:17;18.90;97.60
33994;DHT22;20673;48.980;8.138;2023-04-10T16:00:43;18.80;98.80
33994;DHT22;20673;48.980;8.138;2023-04-10T16:03:09;18.90;97.90
33994;DHT22;20673;48.980;8.138;2023-04-10T16:05:34;18.80;99.30